Map

Track Data

SID SEASON NUMBER BASIN SUBBASIN NAME ISO_TIME NATURE LAT LON WMO_WIND WMO_PRES WMO_AGENCY TRACK_TYPE DIST2LAND LANDFALL IFLAG USA_AGENCY USA_ATCF_ID USA_LAT USA_LON USA_RECORD USA_STATUS USA_WIND USA_PRES USA_SSHS USA_R34_NE USA_R34_SE USA_R34_SW USA_R34_NW USA_R50_NE USA_R50_SE USA_R50_SW USA_R50_NW USA_R64_NE USA_R64_SE USA_R64_SW USA_R64_NW USA_POCI USA_ROCI USA_RMW USA_EYE TOKYO_LAT TOKYO_LON TOKYO_GRADE TOKYO_WIND TOKYO_PRES TOKYO_R50_DIR TOKYO_R50_LONG TOKYO_R50_SHORT TOKYO_R30_DIR TOKYO_R30_LONG TOKYO_R30_SHORT TOKYO_LAND CMA_LAT CMA_LON CMA_CAT CMA_WIND CMA_PRES HKO_LAT HKO_LON HKO_CAT HKO_WIND HKO_PRES NEWDELHI_LAT NEWDELHI_LON NEWDELHI_GRADE NEWDELHI_WIND NEWDELHI_PRES NEWDELHI_CI NEWDELHI_DP NEWDELHI_POCI REUNION_LAT REUNION_LON REUNION_TYPE REUNION_WIND REUNION_PRES REUNION_TNUM REUNION_CI REUNION_RMW REUNION_R34_NE REUNION_R34_SE REUNION_R34_SW REUNION_R34_NW REUNION_R50_NE REUNION_R50_SE REUNION_R50_SW REUNION_R50_NW REUNION_R64_NE REUNION_R64_SE REUNION_R64_SW REUNION_R64_NW BOM_LAT BOM_LON BOM_TYPE BOM_WIND BOM_PRES BOM_TNUM BOM_CI BOM_RMW BOM_R34_NE BOM_R34_SE BOM_R34_SW BOM_R34_NW BOM_R50_NE BOM_R50_SE BOM_R50_SW BOM_R50_NW BOM_R64_NE BOM_R64_SE BOM_R64_SW BOM_R64_NW BOM_ROCI BOM_POCI BOM_EYE BOM_POS_METHOD BOM_PRES_METHOD NADI_LAT NADI_LON NADI_CAT NADI_WIND NADI_PRES WELLINGTON_LAT WELLINGTON_LON WELLINGTON_WIND WELLINGTON_PRES DS824_LAT DS824_LON DS824_STAGE DS824_WIND DS824_PRES TD9636_LAT TD9636_LON TD9636_STAGE TD9636_WIND TD9636_PRES TD9635_LAT TD9635_LON TD9635_WIND TD9635_PRES TD9635_ROCI NEUMANN_LAT NEUMANN_LON NEUMANN_CLASS NEUMANN_WIND NEUMANN_PRES MLC_LAT MLC_LON MLC_CLASS MLC_WIND MLC_PRES USA_GUST BOM_GUST BOM_GUST_PER REUNION_GUST REUNION_GUST_PER USA_SEAHGT USA_SEARAD_NE USA_SEARAD_SE USA_SEARAD_SW USA_SEARAD_NW STORM_SPEED STORM_DIR
1930140N07142 1930 24 WP MM NOT_NAMED 1930-05-20 10:00:00 NR 7.00000 141.600 main 1035 1035 __________O___ -1 7.00000 141.600 7 5 325
1930140N07142 1930 24 WP MM NOT_NAMED 1930-05-20 12:00:00 NR 7.12190 141.508 main 1041 1041 __________P___ -1 7.12190 141.508 7 5 323
1930140N07142 1930 24 WP MM NOT_NAMED 1930-05-20 15:00:00 NR 7.31527 141.361 main 1058 1055 __________P___ -1 7.31527 141.361 7 5 323
1930140N07142 1930 24 WP MM NOT_NAMED 1930-05-20 18:00:00 NR 7.53575 141.190 main 1072 1072 __________P___ -1 7.53575 141.190 7 6 322
1930140N07142 1930 24 WP MM NOT_NAMED 1930-05-20 21:00:00 NR 7.79960 140.981 main 1098 1095 __________P___ -1 7.79960 140.981 7 7 322
1930140N07142 1930 24 WP MM NOT_NAMED 1930-05-20 22:00:00 NR 7.90000 140.900 main 1105 1105 __________O___ -1 7.90000 140.900 2 8 321
1930140N07142 1930 24 WP MM NOT_NAMED 1930-05-21 00:00:00 NR 8.12150 140.720 main 1121 1121 __________P___ -1 8.12150 140.720 2 9 321
1930140N07142 1930 24 WP MM NOT_NAMED 1930-05-21 03:00:00 NR 8.49776 140.413 main 1155 1155 __________P___ -1 8.49776 140.413 2 10 321
1930140N07142 1930 24 WP MM NOT_NAMED 1930-05-21 06:00:00 NR 8.91291 140.074 main 1182 1182 __________P___ -1 8.91291 140.074 2 11 321
1930140N07142 1930 24 WP MM NOT_NAMED 1930-05-21 09:00:00 NR 9.35136 139.719 main 1218 1218 __________P___ -1 9.35136 139.719 2 11 321
1930140N07142 1930 24 WP MM NOT_NAMED 1930-05-21 10:00:00 NR 9.50000 139.600 main 1224 1224 __________O___ -1 9.50000 139.600 2 11 322
1930140N07142 1930 24 WP MM NOT_NAMED 1930-05-21 12:00:00 NR 9.80168 139.365 main 1249 1245 __________P___ -1 9.80168 139.365 2 12 323
1930140N07142 1930 24 WP MM NOT_NAMED 1930-05-21 15:00:00 NR 10.2672 139.005 main 1288 1285 __________P___ -1 10.2672 139.005 2 12 323
1930140N07142 1930 24 WP MM NOT_NAMED 1930-05-21 18:00:00 NR 10.7287 138.649 main 1319 1330 __________P___ -1 10.7287 138.649 2 11 323
1930140N07142 1930 24 WP MM NOT_NAMED 1930-05-21 21:00:00 NR 11.1643 138.308 main 1342 1333 __________P___ -1 11.1643 138.308 2 11 322
1930140N07142 1930 24 WP MM NOT_NAMED 1930-05-21 22:00:00 NR 11.3000 138.200 main 1333 1316 __________O___ -1 11.3000 138.200 2 10 323
1930140N07142 1930 24 WP MM NOT_NAMED 1930-05-22 00:00:00 NR 11.5423 138.015 main 1316 1302 __________P___ -1 11.5423 138.015 2 9 323
1930140N07142 1930 24 WP MM NOT_NAMED 1930-05-22 03:00:00 NR 11.8743 137.756 main 1304 1277 __________P___ -1 11.8743 137.756 2 8 322
1930140N07142 1930 24 WP MM NOT_NAMED 1930-05-22 06:00:00 NR 12.1854 137.497 main 1280 1253 __________P___ -1 12.1854 137.497 2 8 319
1930140N07142 1930 24 WP MM NOT_NAMED 1930-05-22 09:00:00 NR 12.4943 137.208 main 1253 1243 __________P___ -1 12.4943 137.208 2 9 317
1930140N07142 1930 24 WP MM NOT_NAMED 1930-05-22 10:00:00 NR 12.6000 137.100 main 1243 1225 __________O___ -1 12.6000 137.100 7 9 316
1930140N07142 1930 24 WP MM NOT_NAMED 1930-05-22 12:00:00 NR 12.8272 136.885 main 1225 1189 __________P___ -1 12.8272 136.885 7 10 316
1930140N07142 1930 24 WP MM NOT_NAMED 1930-05-22 15:00:00 NR 13.1744 136.524 main 1189 1154 __________P___ -1 13.1744 136.524 7 10 312
1930140N07142 1930 24 WP MM NOT_NAMED 1930-05-22 18:00:00 NR 13.5268 136.101 main 1154 1111 __________P___ -1 13.5268 136.101 7 12 308
1930140N07142 1930 24 WP MM NOT_NAMED 1930-05-22 21:00:00 NR 13.8817 135.592 main 1111 1091 __________P___ -1 13.8817 135.592 7 12 305
1930140N07142 1930 24 WP MM NOT_NAMED 1930-05-22 22:00:00 NR 14.0000 135.400 main 1091 1053 __________O___ -1 14.0000 135.400 7 14 301
1930140N07142 1930 24 WP MM NOT_NAMED 1930-05-23 00:00:00 NR 14.2440 134.982 main 1053 989 __________P___ -1 14.2440 134.982 7 15 299
1930140N07142 1930 24 WP MM NOT_NAMED 1930-05-23 03:00:00 NR 14.6100 134.274 main 989 916 __________P___ -1 14.6100 134.274 7 16 297
1930140N07142 1930 24 WP MM NOT_NAMED 1930-05-23 06:00:00 NR 14.9650 133.494 main 920 851 __________P___ -1 14.9650 133.494 7 17 294
1930140N07142 1930 24 WP MM NOT_NAMED 1930-05-23 09:00:00 NR 15.2967 132.676 main 851 826 __________P___ -1 15.2967 132.676 7 17 292
1930140N07142 1930 24 WP MM NOT_NAMED 1930-05-23 10:00:00 NR 15.4000 132.400 main 826 779 __________O___ -1 15.4000 132.400 7 18 291
1930140N07142 1930 24 WP MM NOT_NAMED 1930-05-23 12:00:00 NR 15.6111 131.826 main 779 714 __________P___ -1 15.6111 131.826 7 18 290
1930140N07142 1930 24 WP MM NOT_NAMED 1930-05-23 15:00:00 NR 15.9028 130.944 main 714 660 __________P___ -1 15.9028 130.944 7 18 288
1930140N07142 1930 24 WP MM NOT_NAMED 1930-05-23 18:00:00 NR 16.1529 130.091 main 664 590 __________P___ -1 16.1529 130.091 7 16 286
1930140N07142 1930 24 WP MM NOT_NAMED 1930-05-23 21:00:00 NR 16.3488 129.325 main 590 577 __________P___ -1 16.3488 129.325 7 15 285
1930140N07142 1930 24 WP MM NOT_NAMED 1930-05-23 22:00:00 NR 16.4000 129.100 main 577 545 __________O___ -1 16.4000 129.100 7 12 283
1930140N07142 1930 24 WP MM NOT_NAMED 1930-05-24 00:00:00 NR 16.4826 128.740 main 545 516 __________P___ -1 16.4826 128.740 7 9 282
1930140N07142 1930 24 WP MM NOT_NAMED 1930-05-24 03:00:00 NR 16.5574 128.303 main 516 482 __________P___ -1 16.5574 128.303 7 8 278
1930140N07142 1930 24 WP MM NOT_NAMED 1930-05-24 06:00:00 NR 16.5902 127.926 main 482 449 __________P___ -1 16.5902 127.926 7 7 273
1930140N07142 1930 24 WP MM NOT_NAMED 1930-05-24 09:00:00 NR 16.5992 127.542 main 449 441 __________P___ -1 16.5992 127.542 7 8 271
1930140N07142 1930 24 WP MM NOT_NAMED 1930-05-24 10:00:00 NR 16.6000 127.400 main 441 418 __________O___ -1 16.6000 127.400 7 9 271
1930140N07142 1930 24 WP MM NOT_NAMED 1930-05-24 12:00:00 NR 16.6112 127.064 main 418 374 __________P___ -1 16.6112 127.064 7 10 271
1930140N07142 1930 24 WP MM NOT_NAMED 1930-05-24 15:00:00 NR 16.6154 126.522 main 374 337 __________P___ -1 16.6154 126.522 7 11 270
1930140N07142 1930 24 WP MM NOT_NAMED 1930-05-24 18:00:00 NR 16.6102 125.938 main 337 300 __________P___ -1 16.6102 125.938 7 12 269
1930140N07142 1930 24 WP MM NOT_NAMED 1930-05-24 21:00:00 NR 16.6022 125.316 main 300 278 __________P___ -1 16.6022 125.316 7 12 269
1930140N07142 1930 24 WP MM NOT_NAMED 1930-05-24 22:00:00 NR 16.6000 125.100 main 278 236 __________O___ -1 16.6000 125.100 3 13 270
1930140N07142 1930 24 WP MM NOT_NAMED 1930-05-25 00:00:00 NR 16.6051 124.662 main 236 163 __________P___ -1 16.6051 124.662 3 13 271
1930140N07142 1930 24 WP MM NOT_NAMED 1930-05-25 03:00:00 NR 16.6130 123.973 main 163 91 __________P___ -1 16.6130 123.973 3 13 270
1930140N07142 1930 24 WP MM NOT_NAMED 1930-05-25 06:00:00 NR 16.6155 123.261 main 91 21 __________P___ -1 16.6155 123.261 3 14 270
1930140N07142 1930 24 WP MM NOT_NAMED 1930-05-25 09:00:00 NR 16.6066 122.540 main 21 0 __________P___ -1 16.6066 122.540 3 14 269
1930140N07142 1930 24 WP MM NOT_NAMED 1930-05-25 10:00:00 NR 16.6000 122.300 main 0 0 __________O___ -1 16.6000 122.300 4 14 266
1930140N07142 1930 24 WP MM NOT_NAMED 1930-05-25 12:00:00 NR 16.5549 121.788 main 0 0 __________P___ -1 16.5549 121.788 4 15 264
1930140N07142 1930 24 WP MM NOT_NAMED 1930-05-25 15:00:00 NR 16.4740 121.020 main 0 0 __________P___ -1 16.4740 121.020 4 14 264
1930140N07142 1930 24 WP MM NOT_NAMED 1930-05-25 18:00:00 NR 16.4074 120.298 main 10 10 __________P___ -1 16.4074 120.298 4 13 266
1930140N07142 1930 24 WP MM NOT_NAMED 1930-05-25 21:00:00 NR 16.3893 119.676 main 15 24 __________P___ -1 16.3893 119.676 4 11 269
1930140N07142 1930 24 WP MM NOT_NAMED 1930-05-25 22:00:00 NR 16.4000 119.500 main 33 33 __________O___ -1 16.4000 119.500 4 9 278
1930140N07142 1930 24 WP MM NOT_NAMED 1930-05-26 00:00:00 NR 16.4513 119.186 main 67 67 __________P___ -1 16.4513 119.186 4 8 286
1930140N07142 1930 24 WP MM NOT_NAMED 1930-05-26 03:00:00 NR 16.5855 118.821 main 111 111 __________P___ -1 16.5855 118.821 4 7 299
1930140N07142 1930 24 WP MM NOT_NAMED 1930-05-26 06:00:00 NR 16.7773 118.572 main 139 139 __________P___ -1 16.7773 118.572 4 6 319
1930140N07142 1930 24 WP MM NOT_NAMED 1930-05-26 09:00:00 NR 17.0136 118.427 main 168 168 __________P___ -1 17.0136 118.427 4 5 333
1930140N07142 1930 24 WP MM NOT_NAMED 1930-05-26 10:00:00 NR 17.1000 118.400 main 173 173 __________O___ -1 17.1000 118.400 4 6 343
1930140N07142 1930 24 WP MM NOT_NAMED 1930-05-26 12:00:00 NR 17.2844 118.346 main 195 195 __________P___ -1 17.2844 118.346 4 6 354
1930140N07142 1930 24 WP MM NOT_NAMED 1930-05-26 15:00:00 NR 17.5929 118.346 main 212 201 __________P___ -1 17.5929 118.346 4 6 6
1930140N07142 1930 24 WP MM NOT_NAMED 1930-05-26 18:00:00 NR 17.9121 118.423 main 204 192 __________P___ -1 17.9121 118.423 4 7 18
1930140N07142 1930 24 WP MM NOT_NAMED 1930-05-26 21:00:00 NR 18.2105 118.550 main 192 192 __________P___ -1 18.2105 118.550 4 6 23
1930140N07142 1930 24 WP MM NOT_NAMED 1930-05-26 22:00:00 NR 18.3000 118.600 main 196 191 __________O___ -1 18.3000 118.600 4 5 29
1930140N07142 1930 24 WP MM NOT_NAMED 1930-05-27 00:00:00 NR 18.4479 118.691 main 191 177 __________P___ -1 18.4479 118.691 4 5 36
1930140N07142 1930 24 WP MM NOT_NAMED 1930-05-27 03:00:00 NR 18.6382 118.858 main 177 171 __________P___ -1 18.6382 118.858 4 5 44
1930140N07142 1930 24 WP MM NOT_NAMED 1930-05-27 06:00:00 NR 18.8018 119.047 main 174 157 __________P___ -1 18.8018 119.047 4 5 49
1930140N07142 1930 24 WP MM NOT_NAMED 1930-05-27 09:00:00 NR 18.9512 119.239 main 162 152 __________P___ -1 18.9512 119.239 4 5 50
1930140N07142 1930 24 WP MM NOT_NAMED 1930-05-27 10:00:00 NR 19.0000 119.300 main 152 148 __________O___ -1 19.0000 119.300 4 5 43
1930140N07142 1930 24 WP MM NOT_NAMED 1930-05-27 12:00:00 NR 19.1161 119.401 main 148 146 __________P___ -1 19.1161 119.401 4 4 39
1930140N07142 1930 24 WP MM NOT_NAMED 1930-05-27 15:00:00 NR 19.2843 119.545 main 153 145 __________P___ -1 19.2843 119.545 4 4 41
1930140N07142 1930 24 WP MM NOT_NAMED 1930-05-27 18:00:00 NR 19.4369 119.690 main 146 145 __________P___ -1 19.4369 119.690 4 4 45
1930140N07142 1930 24 WP MM NOT_NAMED 1930-05-27 21:00:00 NR 19.5646 119.845 main 153 146 __________P___ -1 19.5646 119.845 4 4 50
1930140N07142 1930 24 WP MM NOT_NAMED 1930-05-27 22:00:00 NR 19.6000 119.900 main 146 139 __________O___ -1 19.6000 119.900 4 4 60
1930140N07142 1930 24 WP MM NOT_NAMED 1930-05-28 00:00:00 NR 19.6562 120.019 main 149 138 __________P___ -1 19.6562 120.019 4 4 68
1930140N07142 1930 24 WP MM NOT_NAMED 1930-05-28 03:00:00 NR 19.7152 120.211 main 138 130 __________P___ -1 19.7152 120.211 4 4 75
1930140N07142 1930 24 WP MM NOT_NAMED 1930-05-28 06:00:00 NR 19.7550 120.415 main 140 135 __________P___ -1 19.7550 120.415 4 4 79
1930140N07142 1930 24 WP MM NOT_NAMED 1930-05-28 09:00:00 NR 19.7882 120.628 main 135 134 __________P___ -1 19.7882 120.628 4 4 80
1930140N07142 1930 24 WP MM NOT_NAMED 1930-05-28 10:00:00 NR 19.8000 120.700 main 134 134 __________O___ -1 19.8000 120.700 4 4 77
1930140N07142 1930 24 WP MM NOT_NAMED 1930-05-28 12:00:00 NR 19.8332 120.831 main 134 134 __________P___ -1 19.8332 120.831 4 4 75
1930140N07142 1930 24 WP MM NOT_NAMED 1930-05-28 15:00:00 NR 19.8830 121.034 main 145 145 __________P___ -1 19.8830 121.034 4 4 76
1930140N07142 1930 24 WP MM NOT_NAMED 1930-05-28 18:00:00 NR 19.9329 121.255 main 151 151 __________P___ -1 19.9329 121.255 4 5 77
1930140N07142 1930 24 WP MM NOT_NAMED 1930-05-28 21:00:00 NR 19.9832 121.507 main 168 168 __________P___ -1 19.9832 121.507 4 5 78
1930140N07142 1930 24 WP MM NOT_NAMED 1930-05-28 22:00:00 NR 20.0000 121.600 main 169 169 __________O___ -1 20.0000 121.600 4 6 79
1930140N07142 1930 24 WP MM NOT_NAMED 1930-05-29 00:00:00 NR 20.0386 121.805 main 172 172 __________P___ -1 20.0386 121.805 4 6 79
1930140N07142 1930 24 WP MM NOT_NAMED 1930-05-29 03:00:00 NR 20.0967 122.143 main 190 190 __________P___ -1 20.0967 122.143 4 7 80
1930140N07142 1930 24 WP MM NOT_NAMED 1930-05-29 06:00:00 NR 20.1492 122.506 main 191 202 __________P___ -1 20.1492 122.506 4 7 82
1930140N07142 1930 24 WP MM NOT_NAMED 1930-05-29 09:00:00 NR 20.1900 122.877 main 210 210 __________P___ -1 20.1900 122.877 4 7 84
1930140N07142 1930 24 WP MM NOT_NAMED 1930-05-29 10:00:00 NR 20.2000 123.000 main 214 214 __________O___ -1 20.2000 123.000 4 7 91
1930140N07142 1930 24 WP MM NOT_NAMED 1930-05-29 12:00:00 NR 20.1825 123.239 main 222 227 __________P___ -1 20.1825 123.239 4 7 96
1930140N07142 1930 24 WP MM NOT_NAMED 1930-05-29 15:00:00 NR 20.1430 123.598 main 234 234 __________P___ -1 20.1430 123.598 4 7 95
1930140N07142 1930 24 WP MM NOT_NAMED 1930-05-29 18:00:00 NR 20.1239 123.950 main 260 260 __________P___ -1 20.1239 123.950 4 7 88
1930140N07142 1930 24 WP MM NOT_NAMED 1930-05-29 21:00:00 NR 20.1656 124.290 main 290 290 __________P___ -1 20.1656 124.290 4 6 80
1930140N07142 1930 24 WP MM NOT_NAMED 1930-05-29 22:00:00 NR 20.2000 124.400 main 298 298 __________O___ -1 20.2000 124.400 4 7 66
1930140N07142 1930 24 WP MM NOT_NAMED 1930-05-30 00:00:00 NR 20.3048 124.627 main 321 321 __________P___ -1 20.3048 124.627 4 7 58
1930140N07142 1930 24 WP MM NOT_NAMED 1930-05-30 03:00:00 NR 20.5310 124.955 main 367 367 __________P___ -1 20.5310 124.955 4 8 49
1930140N07142 1930 24 WP MM NOT_NAMED 1930-05-30 06:00:00 NR 20.8262 125.258 main 413 413 __________P___ -1 20.8262 125.258 4 8 40
1930140N07142 1930 24 WP MM NOT_NAMED 1930-05-30 09:00:00 NR 21.1747 125.522 main 458 458 __________P___ -1 21.1747 125.522 4 9 34
1930140N07142 1930 24 WP MM NOT_NAMED 1930-05-30 10:00:00 NR 21.3000 125.600 main 473 472 __________O___ -1 21.3000 125.600 4 9 31
1930140N07142 1930 24 WP MM NOT_NAMED 1930-05-30 12:00:00 NR 21.5411 125.760 main 486 478 __________P___ -1 21.5411 125.760 4 9 28
1930140N07142 1930 24 WP MM NOT_NAMED 1930-05-30 15:00:00 NR 21.9405 125.963 main 491 482 __________P___ -1 21.9405 125.963 4 9 21
1930140N07142 1930 24 WP MM NOT_NAMED 1930-05-30 18:00:00 NR 22.3769 126.111 main 488 477 __________P___ -1 22.3769 126.111 4 9 13
1930140N07142 1930 24 WP MM NOT_NAMED 1930-05-30 21:00:00 NR 22.8409 126.191 main 477 468 __________P___ -1 22.8409 126.191 4 9 7
1930140N07142 1930 24 WP MM NOT_NAMED 1930-05-30 22:00:00 NR 23.0000 126.200 main 468 456 __________O___ -1 23.0000 126.200 4 10 0
1930140N07142 1930 24 WP MM NOT_NAMED 1930-05-31 00:00:00 NR 23.3162 126.178 main 456 433 __________P___ -1 23.3162 126.178 4 10 352
1930140N07142 1930 24 WP MM NOT_NAMED 1930-05-31 03:00:00 NR 23.8095 126.082 main 433 411 __________P___ -1 23.8095 126.082 4 10 348
1930140N07142 1930 24 WP MM NOT_NAMED 1930-05-31 06:00:00 NR 24.3172 125.950 main 411 383 __________P___ -1 24.3172 125.950 4 11 347
1930140N07142 1930 24 WP MM NOT_NAMED 1930-05-31 09:00:00 NR 24.8297 125.829 main 383 382 __________P___ -1 24.8297 125.829 4 11 349
1930140N07142 1930 24 WP MM NOT_NAMED 1930-05-31 10:00:00 NR 25.0000 125.800 main 382 382 __________O___ -1 25.0000 125.800 4 10 354
1930140N07142 1930 24 WP MM NOT_NAMED 1930-05-31 12:00:00 NR 25.3383 125.765 main 383 384 __________P___ -1 25.3383 125.765 4 10 357
1930140N07142 1930 24 WP MM NOT_NAMED 1930-05-31 15:00:00 NR 25.8409 125.763 main 391 394 __________P___ -1 25.8409 125.763 4 10 2
1930140N07142 1930 24 WP MM NOT_NAMED 1930-05-31 18:00:00 NR 26.3392 125.806 main 407 411 __________P___ -1 26.3392 125.806 4 10 5
1930140N07142 1930 24 WP MM NOT_NAMED 1930-05-31 21:00:00 NR 26.8350 125.875 main 438 443 __________P___ -1 26.8350 125.875 4 10 8
1930140N07142 1930 24 WP MM NOT_NAMED 1930-05-31 22:00:00 NR 27.0000 125.900 main 447 __________O___ -1 27.0000 125.900 4 10 0

Digital Typhoon Data and Search

About IBTrACS Database

This database is a web-friendly format of International Best Track Archive for Climate Stewardship (IBTrACS), a global best track data archive curated by NOAA dating back to 1842.

Updated: 2021-12-03